Time;durP1;ratioP1;P1;durP2;ratioP2;P2;SDS_P1;SDS_P2;PMS_P1;PMS_P2;Temp;Humidity;BMP_temperature;BMP_pressure;BME280_temperature;BME280_humidity;BME280_pressure;Samples;Min_cycle;Max_cycle;Signal;HPM_P1;HPM_P2
2022/10/09 00:00:23;;;;;;;2.67;0.90;;;12.90;59.00;;;;;;2598520;52;21042;-76
2022/10/09 00:02:49;;;;;;;2.28;0.90;;;13.00;59.10;;;;;;2441390;52;20977;-77
2022/10/09 00:05:16;;;;;;;3.60;1.00;;;12.90;58.90;;;;;;2548278;53;20916;-77
2022/10/09 00:07:44;;;;;;;3.65;1.10;;;12.90;59.00;;;;;;2347943;53;20957;-77
2022/10/09 00:10:10;;;;;;;3.10;0.90;;;12.90;59.00;;;;;;2346401;53;20942;-77
2022/10/09 00:12:42;;;;;;;3.03;0.80;;;12.90;58.90;;;;;;2606052;52;20977;-77
2022/10/09 00:15:43;;;;;;;2.90;0.98;;;12.90;58.90;;;;;;2405096;52;20994;-77
2022/10/09 00:18:10;;;;;;;4.62;1.00;;;12.90;58.80;;;;;;2351809;53;21386;-77
2022/10/09 00:20:40;;;;;;;3.08;1.00;;;12.90;58.90;;;;;;2371231;53;21001;-77
2022/10/09 00:23:07;;;;;;;3.50;1.23;;;12.90;59.10;;;;;;2320146;53;21004;-77
2022/10/09 00:25:53;;;;;;;3.35;1.27;;;12.80;59.00;;;;;;2346642;53;21773;-77
2022/10/09 00:28:20;;;;;;;3.10;1.10;;;12.80;59.10;;;;;;2347324;53;21748;-77
2022/10/09 00:30:46;;;;;;;3.35;1.20;;;12.80;59.00;;;;;;2343989;53;21027;-77
2022/10/09 00:33:13;;;;;;;2.65;1.05;;;12.80;59.00;;;;;;2587892;53;20963;-77
2022/10/09 00:35:40;;;;;;;2.85;0.90;;;12.80;59.00;;;;;;2337670;53;20968;-77
2022/10/09 00:38:07;;;;;;;2.50;1.10;;;12.70;58.90;;;;;;2362409;53;20933;-77
2022/10/09 00:40:34;;;;;;;3.37;1.40;;;12.70;58.90;;;;;;2351324;53;21014;-77
2022/10/09 00:43:35;;;;;;;3.75;1.30;;;12.70;58.90;;;;;;2590921;52;20928;-77
2022/10/09 00:46:01;;;;;;;2.75;1.05;;;12.70;59.20;;;;;;2345730;53;20983;-77
2022/10/09 00:48:28;;;;;;;3.10;1.12;;;12.70;59.00;;;;;;2574990;52;20993;-77
2022/10/09 00:51:04;;;;;;;3.67;1.35;;;12.60;58.80;;;;;;2351823;53;20949;-77
2022/10/09 00:53:30;;;;;;;3.62;1.00;;;12.60;58.90;;;;;;2341666;53;20936;-76
2022/10/09 00:55:56;;;;;;;3.92;1.02;;;12.60;59.00;;;;;;2350615;53;21049;-77
2022/10/09 00:58:25;;;;;;;3.37;1.08;;;12.50;58.90;;;;;;2370704;53;20961;-76
2022/10/09 01:00:52;;;;;;;1.95;0.90;;;12.50;58.90;;;;;;2356427;53;21004;-77
2022/10/09 01:03:18;;;;;;;2.90;0.90;;;12.50;58.80;;;;;;2365305;53;21037;-76
2022/10/09 01:06:10;;;;;;;2.80;1.00;;;12.50;58.80;;;;;;2346718;56;21096;-77
2022/10/09 01:09:46;;;;;;;2.12;1.00;;;12.50;58.80;;;;;;2586466;53;21131;-77
2022/10/09 01:12:36;;;;;;;2.08;0.90;;;12.40;59.00;;;;;;2336295;53;21030;-76
2022/10/09 01:15:07;;;;;;;3.50;1.02;;;12.40;58.90;;;;;;2352229;53;21001;-77
2022/10/09 01:20:33;;;;;;;2.17;0.90;;;12.40;58.80;;;;;;2350051;53;21016;-77
2022/10/09 01:36:15;;;;;;;3.20;0.90;;;12.40;58.90;;;;;;2380857;53;20948;-77
2022/10/09 01:38:44;;;;;;;1.42;0.62;;;12.20;58.50;;;;;;2363162;53;20934;-76
2022/10/09 01:41:19;;;;;;;2.58;0.80;;;12.10;58.50;;;;;;2359529;53;20943;-76
2022/10/09 01:43:45;;;;;;;2.17;0.93;;;12.10;58.70;;;;;;2327032;54;21839;-77
2022/10/09 01:46:22;;;;;;;2.95;1.00;;;12.10;58.80;;;;;;2514625;52;21789;-77
2022/10/09 01:50:26;;;;;;;5.22;0.93;;;12.00;58.80;;;;;;2344069;53;21451;-77
2022/10/09 01:52:56;;;;;;;2.87;0.70;;;12.00;58.80;;;;;;2337090;53;21056;-76
2022/10/09 01:56:41;;;;;;;2.50;0.95;;;12.00;58.90;;;;;;2585813;53;21453;-77
2022/10/09 01:59:11;;;;;;;2.00;0.75;;;11.90;58.90;;;;;;2346200;53;21792;-77
2022/10/09 02:01:41;;;;;;;2.65;0.93;;;11.90;58.90;;;;;;2572161;52;21002;-77
2022/10/09 02:04:08;;;;;;;2.00;0.90;;;11.80;58.80;;;;;;2348313;53;20935;-77
2022/10/09 02:06:35;;;;;;;2.92;1.17;;;11.80;58.90;;;;;;2582274;52;21012;-77
2022/10/09 02:09:02;;;;;;;2.85;1.00;;;11.80;58.90;;;;;;2606507;52;21725;-76
2022/10/09 02:11:29;;;;;;;2.83;1.20;;;11.80;59.20;;;;;;2514277;53;21792;-77
2022/10/09 02:13:59;;;;;;;2.17;0.70;;;11.80;59.30;;;;;;2355490;53;20946;-76
2022/10/09 02:16:45;;;;;;;2.42;0.90;;;11.70;59.30;;;;;;2378883;53;21073;-77
2022/10/09 02:20:00;;;;;;;3.45;1.00;;;11.80;59.50;;;;;;2342697;53;20982;-76
2022/10/09 02:22:30;;;;;;;2.60;0.90;;;11.80;59.30;;;;;;2578673;53;21156;-77
2022/10/09 02:25:04;;;;;;;3.62;1.00;;;11.70;59.20;;;;;;2351459;53;21695;-77
2022/10/09 02:27:31;;;;;;;3.22;1.15;;;11.70;59.10;;;;;;2338274;53;21027;-77
2022/10/09 02:30:00;;;;;;;4.28;1.20;;;11.70;59.00;;;;;;2544781;52;21014;-77
2022/10/09 02:32:38;;;;;;;2.83;1.65;;;11.70;59.00;;;;;;2376006;52;20932;-77
2022/10/09 02:35:05;;;;;;;3.10;1.00;;;11.70;59.00;;;;;;2356460;53;20950;-77
2022/10/09 02:37:31;;;;;;;1.85;0.93;;;11.60;59.00;;;;;;2374950;53;20902;-77
2022/10/09 02:39:58;;;;;;;3.40;1.12;;;11.60;59.00;;;;;;2350701;53;21823;-77
2022/10/09 02:42:24;;;;;;;3.50;0.98;;;11.60;59.00;;;;;;2344889;53;20939;-76
2022/10/09 02:44:51;;;;;;;3.42;1.00;;;11.60;59.00;;;;;;2395308;53;20954;-76
2022/10/09 02:47:18;;;;;;;3.70;0.90;;;11.50;59.00;;;;;;2353316;53;21822;-77
2022/10/09 02:49:44;;;;;;;2.30;1.00;;;11.50;59.00;;;;;;2416593;52;21449;-76
2022/10/09 02:52:10;;;;;;;2.22;0.90;;;11.50;59.00;;;;;;2338147;53;21571;-77
2022/10/09 02:54:37;;;;;;;2.47;1.00;;;11.50;59.10;;;;;;2396401;53;20911;-78
2022/10/09 02:57:55;;;;;;;4.07;1.30;;;11.40;59.00;;;;;;2363067;53;20955;-77
2022/10/09 03:00:21;;;;;;;1.67;0.70;;;11.40;59.00;;;;;;2344433;53;20955;-77
2022/10/09 03:02:47;;;;;;;3.75;1.00;;;11.40;58.90;;;;;;2355407;53;20989;-77
2022/10/09 03:05:14;;;;;;;2.45;1.10;;;11.40;58.90;;;;;;2542580;52;20940;-77
2022/10/09 03:07:40;;;;;;;3.75;0.90;;;11.40;58.90;;;;;;2346047;53;20911;-77
2022/10/09 03:10:19;;;;;;;4.37;1.50;;;11.30;58.90;;;;;;2346591;53;21000;-77
2022/10/09 03:12:45;;;;;;;2.22;1.00;;;11.30;58.90;;;;;;2355882;53;21143;-77
2022/10/09 03:15:12;;;;;;;4.15;1.50;;;11.30;59.00;;;;;;2601264;52;21427;-76
2022/10/09 03:17:39;;;;;;;3.00;1.17;;;11.30;59.00;;;;;;2347601;53;21435;-76
2022/10/09 03:20:05;;;;;;;3.72;1.58;;;11.30;59.10;;;;;;2346043;53;21488;-77
2022/10/09 03:22:34;;;;;;;3.97;1.70;;;11.20;59.00;;;;;;2365691;53;21009;-77
2022/10/09 03:25:01;;;;;;;3.80;1.67;;;11.20;59.20;;;;;;2364482;53;20910;-77
2022/10/09 03:27:29;;;;;;;3.25;1.55;;;11.20;59.20;;;;;;2349512;53;20956;-77
2022/10/09 03:29:57;;;;;;;2.92;1.42;;;11.20;59.20;;;;;;2347067;53;21025;-77
2022/10/09 03:32:23;;;;;;;4.45;1.42;;;11.20;59.20;;;;;;2475215;52;20959;-77
2022/10/09 03:34:50;;;;;;;6.65;1.55;;;11.20;59.30;;;;;;2345850;53;21507;-77
2022/10/09 03:37:17;;;;;;;3.83;1.48;;;11.20;59.20;;;;;;2348408;53;20934;-77
2022/10/09 03:39:43;;;;;;;6.65;1.55;;;11.20;59.20;;;;;;2499314;53;20947;-76
2022/10/09 03:42:09;;;;;;;4.10;1.50;;;11.20;59.30;;;;;;2345764;53;21047;-77
2022/10/09 03:44:36;;;;;;;3.42;1.37;;;11.10;59.10;;;;;;2350458;53;20943;-77
2022/10/09 03:47:02;;;;;;;2.95;1.27;;;11.20;59.20;;;;;;2355756;53;20992;-77
2022/10/09 03:49:41;;;;;;;3.33;1.42;;;11.10;59.20;;;;;;2346374;53;20964;-77
2022/10/09 03:52:07;;;;;;;4.60;1.20;;;11.10;59.20;;;;;;2344322;53;21067;-77
2022/10/09 03:54:36;;;;;;;3.42;1.60;;;11.10;59.20;;;;;;2344925;53;21003;-77
2022/10/09 03:57:08;;;;;;;3.58;1.30;;;11.10;59.20;;;;;;2338462;53;20952;-77
2022/10/09 03:59:34;;;;;;;2.97;1.37;;;11.10;59.10;;;;;;2350842;53;20939;-77
2022/10/09 04:02:00;;;;;;;3.60;1.50;;;11.00;59.00;;;;;;2342068;53;20942;-77
2022/10/09 04:04:27;;;;;;;2.20;1.05;;;11.00;59.20;;;;;;2364243;53;20994;-77
2022/10/09 04:06:53;;;;;;;3.85;1.42;;;11.00;59.20;;;;;;2354861;53;21014;-77
2022/10/09 04:09:19;;;;;;;3.28;1.40;;;11.00;59.30;;;;;;2366455;53;20954;-77
2022/10/09 04:11:45;;;;;;;5.05;1.45;;;11.00;59.50;;;;;;2347404;53;20952;-76
2022/10/09 04:14:13;;;;;;;3.55;1.45;;;11.00;59.60;;;;;;2341617;53;21040;-77
2022/10/09 04:16:39;;;;;;;3.70;1.70;;;11.00;59.70;;;;;;2346386;53;20987;-77
2022/10/09 04:19:08;;;;;;;2.83;1.35;;;11.00;59.60;;;;;;2359388;53;21026;-76
2022/10/09 04:21:34;;;;;;;2.55;1.20;;;11.00;59.50;;;;;;2383417;52;21394;-77
2022/10/09 04:24:02;;;;;;;2.85;1.30;;;11.00;59.40;;;;;;2361566;53;21911;-77
2022/10/09 04:26:28;;;;;;;3.12;1.40;;;11.00;59.40;;;;;;2407563;53;21768;-76
2022/10/09 04:28:55;;;;;;;3.20;1.50;;;11.00;59.50;;;;;;2505027;52;21823;-77
2022/10/09 04:31:23;;;;;;;2.90;1.37;;;11.00;59.60;;;;;;2582903;52;21510;-77
2022/10/09 04:33:49;;;;;;;3.97;1.48;;;11.00;60.10;;;;;;2355847;53;21011;-77
2022/10/09 04:36:16;;;;;;;2.12;1.17;;;11.00;59.60;;;;;;2349320;53;20998;-77
2022/10/09 04:38:42;;;;;;;3.17;1.35;;;11.00;59.80;;;;;;2516787;52;21498;-77
2022/10/09 04:41:09;;;;;;;2.53;1.30;;;11.00;59.90;;;;;;2586674;52;20967;-77
2022/10/09 04:43:35;;;;;;;2.70;1.40;;;11.00;59.90;;;;;;2347327;53;20999;-77
2022/10/09 04:46:13;;;;;;;3.97;1.60;;;11.00;60.00;;;;;;2372520;53;20927;-76
2022/10/09 04:48:45;;;;;;;3.80;1.48;;;11.00;60.10;;;;;;2347741;53;21053;-77
2022/10/09 04:51:11;;;;;;;4.18;1.45;;;11.00;60.10;;;;;;2340299;53;20971;-77
2022/10/09 04:53:40;;;;;;;2.53;1.20;;;11.00;60.10;;;;;;2338510;53;20980;-76
2022/10/09 04:56:37;;;;;;;2.60;1.05;;;11.10;60.00;;;;;;2346562;53;20974;-77
2022/10/09 04:59:03;;;;;;;2.90;1.20;;;11.10;60.00;;;;;;2339280;53;21002;-77
2022/10/09 05:01:38;;;;;;;2.60;1.40;;;11.10;59.80;;;;;;2339149;53;21010;-76
2022/10/09 05:04:04;;;;;;;2.75;1.02;;;11.10;59.80;;;;;;2597090;52;21057;-77
2022/10/09 05:06:33;;;;;;;2.10;1.10;;;11.00;59.70;;;;;;2359994;53;21809;-76
2022/10/09 05:09:08;;;;;;;2.60;1.02;;;11.00;59.70;;;;;;2356511;53;21932;-76
2022/10/09 05:11:35;;;;;;;2.50;1.20;;;11.00;60.40;;;;;;2346735;53;20965;-76
2022/10/09 05:14:03;;;;;;;4.40;1.00;;;11.00;59.90;;;;;;2611205;52;20995;-76
2022/10/09 05:16:33;;;;;;;2.83;1.30;;;11.00;59.70;;;;;;2340087;53;20932;-76
2022/10/09 05:19:06;;;;;;;2.58;1.27;;;11.00;59.80;;;;;;2358762;53;21017;-77
2022/10/09 05:21:32;;;;;;;2.62;1.33;;;11.00;59.70;;;;;;2372672;53;21442;-76
2022/10/09 05:24:01;;;;;;;1.92;0.95;;;10.90;59.70;;;;;;2470605;52;21062;-76
2022/10/09 05:26:31;;;;;;;5.93;1.33;;;10.90;59.90;;;;;;2353564;53;20974;-76
2022/10/09 05:28:58;;;;;;;3.03;1.00;;;10.90;59.90;;;;;;2593869;52;21748;-76
2022/10/09 05:31:27;;;;;;;4.05;0.82;;;10.90;59.90;;;;;;2346934;53;21036;-76
2022/10/09 05:33:54;;;;;;;3.33;1.00;;;10.90;59.90;;;;;;2359741;53;20940;-77
2022/10/09 05:36:20;;;;;;;2.12;0.90;;;10.90;60.00;;;;;;2345929;53;20891;-76
2022/10/09 05:38:47;;;;;;;2.10;1.00;;;10.90;60.00;;;;;;2600744;52;20940;-76
2022/10/09 05:41:14;;;;;;;2.28;1.00;;;10.90;60.00;;;;;;2583312;52;20955;-76
2022/10/09 05:43:42;;;;;;;4.97;0.95;;;10.90;60.00;;;;;;2585845;52;20907;-77
2022/10/09 05:46:16;;;;;;;3.30;1.50;;;10.90;60.10;;;;;;2359489;53;21015;-76
2022/10/09 05:48:43;;;;;;;4.93;1.60;;;10.90;60.30;;;;;;2378748;52;21029;-77
2022/10/09 05:51:14;;;;;;;2.67;1.10;;;10.90;60.60;;;;;;2358524;53;20946;-77
2022/10/09 05:53:41;;;;;;;2.33;1.20;;;10.90;60.70;;;;;;2353208;53;21032;-77
2022/10/09 05:56:23;;;;;;;3.08;1.30;;;11.00;61.50;;;;;;2343153;53;20952;-77
2022/10/09 05:58:58;;;;;;;3.67;1.17;;;11.00;60.90;;;;;;2346473;53;21394;-76
2022/10/09 06:01:25;;;;;;;4.12;1.30;;;11.00;60.70;;;;;;2346092;53;21007;-76
2022/10/09 06:03:53;;;;;;;2.12;1.10;;;11.00;60.50;;;;;;2586232;52;20932;-76
2022/10/09 06:06:20;;;;;;;2.80;1.27;;;11.10;60.50;;;;;;2359135;53;21091;-77
2022/10/09 06:08:47;;;;;;;2.95;1.10;;;11.00;60.30;;;;;;2588282;53;20964;-77
2022/10/09 06:11:14;;;;;;;2.72;1.10;;;11.00;60.30;;;;;;2347589;53;21420;-76
2022/10/09 06:13:41;;;;;;;2.10;1.00;;;11.10;60.40;;;;;;2342577;53;21000;-76
2022/10/09 06:16:10;;;;;;;3.30;1.50;;;11.00;60.40;;;;;;2344906;53;20927;-77
2022/10/09 06:18:37;;;;;;;3.12;1.73;;;11.00;60.50;;;;;;2353032;53;20994;-76
2022/10/09 06:21:22;;;;;;;2.20;1.08;;;11.00;60.70;;;;;;2354232;53;21554;-76
2022/10/09 06:23:52;;;;;;;2.75;1.37;;;11.10;61.00;;;;;;2340170;53;20956;-76
2022/10/09 06:26:24;;;;;;;2.37;1.23;;;11.10;60.90;;;;;;2347618;53;21947;-77
2022/10/09 06:28:50;;;;;;;3.20;1.52;;;11.10;61.00;;;;;;2349079;53;20950;-77
2022/10/09 06:31:18;;;;;;;6.12;1.10;;;11.20;61.00;;;;;;2348941;53;20975;-76
2022/10/09 06:33:45;;;;;;;2.50;1.33;;;11.20;61.00;;;;;;2359394;53;21028;-76
2022/10/09 06:36:19;;;;;;;2.67;1.33;;;11.20;60.90;;;;;;2341191;53;21628;-77
2022/10/09 06:38:46;;;;;;;2.42;1.20;;;11.20;61.00;;;;;;2442990;52;20953;-76
2022/10/09 06:41:25;;;;;;;4.25;1.40;;;11.20;61.00;;;;;;2600289;52;20972;-77
2022/10/09 06:43:56;;;;;;;2.42;1.37;;;11.30;61.30;;;;;;2580915;52;21507;-76
2022/10/09 06:46:24;;;;;;;3.35;1.20;;;11.30;61.30;;;;;;2586233;52;21115;-77
2022/10/09 06:48:51;;;;;;;3.40;1.55;;;11.30;61.20;;;;;;2545996;52;20952;-76
2022/10/09 06:51:29;;;;;;;4.57;1.30;;;11.30;61.10;;;;;;2341526;53;20988;-76
2022/10/09 06:53:56;;;;;;;3.37;1.50;;;11.40;61.10;;;;;;2420546;52;20956;-76
2022/10/09 06:56:24;;;;;;;2.80;1.62;;;11.40;61.00;;;;;;2420370;53;21036;-76
2022/10/09 06:58:51;;;;;;;2.60;1.20;;;11.40;61.20;;;;;;2363630;53;21073;-77
2022/10/09 07:01:44;;;;;;;2.53;1.30;;;11.40;61.30;;;;;;2362194;53;21072;-76
2022/10/09 07:04:13;;;;;;;2.37;1.25;;;11.40;61.30;;;;;;2581914;52;20991;-76
2022/10/09 07:06:42;;;;;;;3.08;1.33;;;11.40;61.20;;;;;;2320123;53;20947;-76
2022/10/09 07:09:10;;;;;;;2.85;1.37;;;11.40;61.10;;;;;;2344284;53;21879;-77
2022/10/09 07:11:38;;;;;;;3.10;1.60;;;11.50;61.10;;;;;;2344637;53;21011;-76
2022/10/09 07:14:06;;;;;;;2.72;1.33;;;11.50;61.10;;;;;;2339494;53;21004;-77
2022/10/09 07:16:45;;;;;;;4.22;1.70;;;11.50;61.10;;;;;;2345158;53;20996;-77
2022/10/09 07:19:12;;;;;;;2.70;1.40;;;11.50;61.20;;;;;;2356503;53;21506;-76
2022/10/09 07:21:40;;;;;;;6.75;1.75;;;11.50;61.20;;;;;;2457888;52;23053;-76
2022/10/09 07:24:06;;;;;;;3.35;1.65;;;11.50;61.40;;;;;;2383786;52;21797;-76
2022/10/09 07:26:47;;;;;;;3.60;1.55;;;11.60;61.50;;;;;;2587611;52;20975;-76
2022/10/09 07:29:14;;;;;;;3.30;1.65;;;11.60;61.90;;;;;;2350361;53;20971;-77
2022/10/09 07:31:41;;;;;;;3.47;1.62;;;11.60;61.80;;;;;;2352812;53;21019;-77
2022/10/09 07:34:07;;;;;;;4.00;2.30;;;11.60;61.90;;;;;;2339866;53;21733;-77
2022/10/09 07:36:33;;;;;;;4.32;2.35;;;11.70;62.10;;;;;;2582939;53;21497;-76
2022/10/09 07:39:00;;;;;;;3.35;2.05;;;11.70;62.20;;;;;;2345649;53;20998;-76
2022/10/09 07:41:27;;;;;;;2.92;1.60;;;11.80;62.50;;;;;;2357818;53;21022;-77
2022/10/09 07:43:53;;;;;;;8.45;2.08;;;11.80;62.50;;;;;;2346052;53;20948;-76
2022/10/09 07:46:20;;;;;;;4.78;1.80;;;11.90;62.50;;;;;;2351018;53;21915;-77
2022/10/09 07:48:51;;;;;;;5.45;1.67;;;11.90;62.40;;;;;;2354002;53;20969;-77
2022/10/09 07:51:25;;;;;;;7.57;1.67;;;12.00;62.40;;;;;;2373061;53;20935;-77
2022/10/09 07:53:53;;;;;;;2.87;1.58;;;12.00;62.40;;;;;;2349178;53;21392;-76
2022/10/09 07:56:43;;;;;;;2.72;1.40;;;12.00;62.20;;;;;;2338207;53;21051;-76
2022/10/09 07:59:12;;;;;;;3.92;1.90;;;12.10;62.40;;;;;;2520605;52;20985;-76
2022/10/09 08:01:39;;;;;;;4.18;2.17;;;12.10;62.30;;;;;;2341362;53;21036;-77
2022/10/09 08:04:05;;;;;;;3.92;2.08;;;12.20;62.40;;;;;;2587163;52;20961;-76
2022/10/09 08:06:32;;;;;;;4.75;2.62;;;12.20;62.40;;;;;;2348617;53;20958;-76
2022/10/09 08:09:00;;;;;;;3.60;1.90;;;12.20;62.50;;;;;;2368557;53;20984;-77
2022/10/09 08:11:27;;;;;;;3.30;1.75;;;12.30;62.60;;;;;;2354089;53;21035;-76
2022/10/09 08:13:54;;;;;;;3.72;1.90;;;12.30;62.80;;;;;;2588379;53;20940;-76
2022/10/09 08:16:20;;;;;;;3.62;2.20;;;12.40;62.90;;;;;;2341847;53;20975;-76
2022/10/09 08:18:47;;;;;;;4.18;2.37;;;12.40;62.90;;;;;;2353677;53;21371;-77
2022/10/09 08:21:28;;;;;;;4.55;3.25;;;12.50;63.00;;;;;;2588119;52;21018;-77
2022/10/09 08:23:55;;;;;;;5.35;2.53;;;12.60;63.30;;;;;;2354153;53;21829;-76
2022/10/09 08:26:22;;;;;;;8.55;2.55;;;12.60;63.10;;;;;;2342821;53;20948;-76
2022/10/09 08:28:50;;;;;;;4.12;2.50;;;12.70;63.10;;;;;;2338207;53;20964;-76
2022/10/09 08:31:17;;;;;;;3.90;2.33;;;12.70;63.00;;;;;;2344640;53;21003;-76
2022/10/09 08:33:43;;;;;;;8.48;2.03;;;12.80;63.10;;;;;;2590006;52;20980;-77
2022/10/09 08:36:15;;;;;;;4.07;2.25;;;12.80;63.70;;;;;;2497057;53;20968;-77
2022/10/09 08:38:41;;;;;;;3.53;2.08;;;12.90;63.00;;;;;;2344532;54;20952;-76
2022/10/09 08:41:32;;;;;;;4.22;2.33;;;12.90;62.90;;;;;;2347276;54;20916;-77
2022/10/09 08:44:48;;;;;;;4.47;2.45;;;13.00;63.10;;;;;;2353710;53;20944;-77
2022/10/09 08:47:44;;;;;;;3.75;2.30;;;13.00;63.00;;;;;;2338960;54;21043;-76
2022/10/09 08:50:19;;;;;;;3.15;1.90;;;13.10;63.10;;;;;;2343952;54;20918;-77
2022/10/09 08:54:09;;;;;;;3.95;2.42;;;13.20;63.30;;;;;;2591161;53;20936;-77
2022/10/09 08:56:48;;;;;;;4.37;2.50;;;13.20;63.40;;;;;;2586892;53;21012;-77
2022/10/09 08:59:14;;;;;;;4.32;2.60;;;13.30;63.50;;;;;;2396931;53;20944;-77
2022/10/09 09:01:47;;;;;;;5.43;2.72;;;13.40;63.50;;;;;;2589633;53;20953;-77
2022/10/09 09:04:36;;;;;;;4.25;2.87;;;13.50;63.70;;;;;;2347630;53;20903;-76
2022/10/09 09:14:02;;;;;;;4.12;2.35;;;13.50;63.80;;;;;;2459484;53;21068;-77
2022/10/09 09:17:42;;;;;;;3.45;2.15;;;13.80;63.60;;;;;;2529755;53;21011;-76
2022/10/09 09:20:25;;;;;;;6.15;3.05;;;13.90;63.70;;;;;;2590253;53;21465;-77
2022/10/09 09:22:51;;;;;;;4.55;3.00;;;13.90;63.60;;;;;;2345000;54;21031;-77
2022/10/09 09:25:24;;;;;;;6.45;3.70;;;14.00;63.70;;;;;;2371382;53;21015;-78
2022/10/09 09:27:56;;;;;;;5.10;3.33;;;14.10;63.80;;;;;;2606412;52;21093;-77
2022/10/09 09:30:24;;;;;;;;;;;14.10;63.70;;;;;;2323827;54;21003;-77
2022/10/09 09:33:11;;;;;;;5.62;3.00;;;14.20;63.80;;;;;;2405511;53;20082;-77
2022/10/09 09:36:14;;;;;;;4.87;3.12;;;14.30;64.00;;;;;;2343626;53;21032;-77
2022/10/09 09:38:40;;;;;;;4.55;2.87;;;14.30;64.10;;;;;;2343396;54;20957;-77
2022/10/09 09:41:20;;;;;;;4.95;3.12;;;14.40;64.10;;;;;;2432647;53;21543;-77
2022/10/09 09:43:46;;;;;;;4.82;2.92;;;14.40;64.10;;;;;;2461165;53;21429;-77
2022/10/09 09:46:19;;;;;;;6.28;3.50;;;14.50;64.40;;;;;;2589354;53;20944;-77
2022/10/09 09:48:47;;;;;;;4.40;2.90;;;14.60;64.70;;;;;;2566306;53;20956;-77
2022/10/09 09:51:34;;;;;;;5.93;3.42;;;14.70;64.70;;;;;;2341482;53;20964;-78
2022/10/09 09:54:06;;;;;;;5.57;3.10;;;14.80;64.90;;;;;;2344667;53;20936;-77
2022/10/09 09:56:38;;;;;;;4.12;2.72;;;14.90;65.00;;;;;;2541839;53;21013;-77
2022/10/09 09:59:27;;;;;;;6.20;3.30;;;15.00;65.20;;;;;;2588848;52;20915;-76
2022/10/09 10:02:02;;;;;;;5.15;3.17;;;15.10;65.20;;;;;;2344605;53;20980;-77
2022/10/09 10:04:29;;;;;;;5.55;3.47;;;15.20;65.30;;;;;;2341932;53;20948;-78
2022/10/09 10:06:56;;;;;;;6.55;3.33;;;15.30;65.30;;;;;;2504151;53;21770;-80
2022/10/09 10:09:22;;;;;;;5.93;3.15;;;15.40;65.30;;;;;;2584259;53;20968;-76
2022/10/09 10:12:11;;;;;;;5.93;3.20;;;15.50;65.30;;;;;;2471439;53;20995;-77
2022/10/09 10:14:48;;;;;;;7.28;3.28;;;15.60;65.20;;;;;;2458501;53;20943;-78
2022/10/09 10:17:27;;;;;;;4.93;2.95;;;15.70;65.20;;;;;;2348830;53;21069;-77
2022/10/09 10:19:54;;;;;;;5.45;3.10;;;15.90;65.50;;;;;;2346127;53;20960;-77
2022/10/09 10:22:26;;;;;;;5.28;2.87;;;15.90;65.50;;;;;;2345017;53;20982;-77
2022/10/09 10:24:54;;;;;;;4.07;2.55;;;16.00;65.60;;;;;;2343718;54;20987;-77
2022/10/09 10:27:43;;;;;;;5.05;2.83;;;16.10;65.70;;;;;;2460724;53;21003;-77
2022/10/09 10:30:12;;;;;;;4.20;2.70;;;16.20;65.70;;;;;;2355048;53;20981;-79
2022/10/09 10:33:06;;;;;;;4.70;2.53;;;16.40;65.80;;;;;;2332596;54;21473;-80
2022/10/09 10:35:38;;;;;;;6.18;2.58;;;16.50;65.50;;;;;;2502332;52;20979;-80
2022/10/09 10:38:12;;;;;;;5.57;2.78;;;16.60;65.40;;;;;;2340691;54;20996;-80
2022/10/09 10:40:50;;;;;;;4.60;2.05;;;16.70;65.40;;;;;;2347993;53;21728;-79
2022/10/09 10:43:31;;;;;;;5.68;2.40;;;16.80;65.40;;;;;;2345237;53;20944;-80
2022/10/09 10:46:33;;;;;;;3.00;1.67;;;16.90;65.10;;;;;;2422919;53;20971;-79
2022/10/09 10:48:59;;;;;;;4.50;2.00;;;17.10;64.80;;;;;;2465523;53;20905;-81
2022/10/09 10:51:38;;;;;;;4.57;2.03;;;17.10;65.10;;;;;;2373978;53;21531;-78
2022/10/09 10:54:39;;;;;;;5.43;2.17;;;17.30;64.90;;;;;;2349247;54;20992;-77
2022/10/09 11:00:52;;;;;;;5.12;1.95;;;17.40;64.40;;;;;;2357846;53;20965;-77
2022/10/09 11:03:57;;;;;;;4.57;2.00;;;17.50;64.40;;;;;;2589148;53;20956;-76
2022/10/09 11:06:28;;;;;;;3.47;1.60;;;17.80;64.50;;;;;;2342715;53;21234;-77
2022/10/09 11:09:11;;;;;;;3.42;1.37;;;17.80;64.60;;;;;;2382240;53;20968;-77
2022/10/09 11:13:47;;;;;;;3.47;1.67;;;18.00;64.40;;;;;;2360981;53;20944;-77
2022/10/09 11:16:48;;;;;;;3.00;1.50;;;18.10;64.10;;;;;;2342541;53;21000;-77
2022/10/09 11:21:17;;;;;;;4.25;1.52;;;18.30;64.20;;;;;;2448655;53;21033;-77
2022/10/09 11:26:56;;;;;;;3.22;1.20;;;18.40;64.30;;;;;;2586090;53;20996;-78
2022/10/09 11:29:28;;;;;;;3.67;1.62;;;18.70;65.00;;;;;;2343243;54;21060;-78
2022/10/09 11:32:08;;;;;;;4.22;1.42;;;18.80;64.40;;;;;;2395533;53;20929;-77
2022/10/09 11:34:50;;;;;;;3.87;1.60;;;18.90;64.30;;;;;;2427714;53;20944;-79
2022/10/09 11:37:22;;;;;;;3.25;1.23;;;19.00;64.00;;;;;;2431202;53;20979;-78
2022/10/09 11:39:48;;;;;;;3.60;1.25;;;19.10;63.80;;;;;;2343389;53;21008;-77
2022/10/09 11:42:18;;;;;;;2.78;1.45;;;19.10;63.90;;;;;;2518541;52;20919;-78
2022/10/09 11:45:06;;;;;;;2.70;1.10;;;19.30;63.70;;;;;;2380853;52;20984;-76
2022/10/09 11:47:58;;;;;;;2.85;1.05;;;19.40;63.00;;;;;;2542874;53;21051;-77
2022/10/09 11:51:32;;;;;;;3.03;1.20;;;19.50;63.30;;;;;;2347882;53;20982;-76
2022/10/09 11:53:59;;;;;;;3.10;0.95;;;19.60;62.30;;;;;;2403157;53;21213;-77
2022/10/09 11:56:30;;;;;;;4.12;1.33;;;19.70;64.10;;;;;;2350667;53;20953;-77
2022/10/09 11:59:04;;;;;;;3.53;1.27;;;19.80;63.10;;;;;;2345351;53;20951;-77
2022/10/09 12:01:39;;;;;;;3.58;1.20;;;19.80;62.80;;;;;;2446560;52;21112;-78
2022/10/09 12:04:51;;;;;;;3.78;1.10;;;19.90;62.90;;;;;;2342914;53;20952;-77
2022/10/09 12:07:37;;;;;;;2.15;1.00;;;20.00;62.80;;;;;;2481482;52;21684;-78
2022/10/09 12:10:19;;;;;;;3.00;1.20;;;20.10;62.00;;;;;;2400269;53;20929;-79
2022/10/09 12:13:05;;;;;;;2.37;0.80;;;20.10;62.30;;;;;;2343664;53;21833;-77
2022/10/09 12:15:43;;;;;;;2.28;1.00;;;20.20;61.40;;;;;;2342600;54;20936;-77
2022/10/09 12:18:18;;;;;;;3.22;0.98;;;20.20;61.50;;;;;;2343481;54;20929;-78
2022/10/09 12:20:44;;;;;;;3.15;1.40;;;20.30;61.40;;;;;;2451203;53;20986;-77
2022/10/09 12:23:11;;;;;;;3.50;0.98;;;20.40;61.60;;;;;;2344957;53;21005;-76
2022/10/09 12:25:51;;;;;;;2.72;1.20;;;20.40;61.60;;;;;;2343180;53;21051;-77
2022/10/09 12:28:54;;;;;;;4.40;1.12;;;20.50;61.50;;;;;;2589716;53;21005;-77
2022/10/09 12:31:35;;;;;;;3.60;1.20;;;20.60;60.30;;;;;;2343786;53;20921;-76
2022/10/09 12:34:37;;;;;;;2.83;1.10;;;20.60;60.90;;;;;;2344084;54;21401;-77
2022/10/09 12:37:18;;;;;;;3.28;1.05;;;20.70;60.60;;;;;;2344264;54;20992;-78
2022/10/09 12:39:45;;;;;;;2.22;0.90;;;20.70;60.80;;;;;;2590855;53;21008;-77
2022/10/09 12:42:22;;;;;;;2.60;1.00;;;20.80;61.30;;;;;;2343708;54;20920;-77
2022/10/09 12:44:51;;;;;;;2.92;1.15;;;20.80;60.90;;;;;;2562031;53;20952;-77
2022/10/09 12:47:25;;;;;;;2.72;0.93;;;20.90;61.30;;;;;;2343854;54;20960;-78
2022/10/09 12:49:56;;;;;;;2.00;0.90;;;21.00;60.80;;;;;;2343312;54;20944;-77
2022/10/09 12:52:23;;;;;;;2.10;0.85;;;21.00;60.80;;;;;;2371808;53;20929;-78
2022/10/09 12:54:53;;;;;;;2.62;0.93;;;21.10;61.20;;;;;;2343792;54;20999;-78
2022/10/09 12:57:21;;;;;;;2.20;0.90;;;21.20;60.70;;;;;;2488017;52;20967;-77
2022/10/09 12:59:49;;;;;;;2.58;0.90;;;21.20;60.80;;;;;;2345028;54;20901;-77
2022/10/09 13:02:15;;;;;;;2.60;0.98;;;21.30;60.90;;;;;;2346278;53;20921;-77
2022/10/09 13:04:52;;;;;;;1.92;0.75;;;21.40;60.90;;;;;;2403860;53;20944;-77
2022/10/09 13:07:22;;;;;;;2.33;0.73;;;21.40;60.70;;;;;;2384076;53;21008;-77
2022/10/09 13:09:55;;;;;;;2.72;0.90;;;21.50;60.60;;;;;;2337805;54;20996;-77
2022/10/09 13:12:23;;;;;;;2.60;0.73;;;21.60;60.60;;;;;;2344250;54;21012;-78
2022/10/09 13:14:59;;;;;;;2.30;0.90;;;21.60;60.40;;;;;;2590652;53;21058;-77
2022/10/09 13:17:59;;;;;;;2.53;0.98;;;21.70;60.10;;;;;;2343428;53;21973;-77
2022/10/09 13:20:30;;;;;;;4.62;0.93;;;21.80;59.60;;;;;;2487508;53;20945;-77
2022/10/09 13:23:03;;;;;;;2.50;0.80;;;21.80;60.00;;;;;;2589822;53;21437;-78
2022/10/09 13:25:34;;;;;;;2.22;0.98;;;21.90;59.80;;;;;;2463431;53;20912;-77
2022/10/09 13:28:01;;;;;;;1.27;0.60;;;21.90;59.80;;;;;;2479162;53;20932;-77
2022/10/09 13:30:27;;;;;;;2.90;0.80;;;22.00;60.00;;;;;;2541459;53;20928;-77
2022/10/09 13:32:54;;;;;;;4.95;1.25;;;22.00;59.90;;;;;;2395790;53;20940;-77
2022/10/09 13:35:20;;;;;;;2.08;0.80;;;22.10;59.60;;;;;;2589159;53;21453;-77
2022/10/09 13:37:46;;;;;;;1.98;0.68;;;22.20;59.60;;;;;;2343367;54;20957;-77
2022/10/09 13:40:14;;;;;;;1.48;0.60;;;22.20;59.50;;;;;;2343243;54;20933;-77
2022/10/09 13:42:52;;;;;;;2.87;0.70;;;22.30;59.30;;;;;;2342970;54;20932;-78
2022/10/09 13:45:18;;;;;;;2.90;1.45;;;22.30;58.50;;;;;;2342701;54;21083;-77
2022/10/09 13:47:45;;;;;;;3.45;1.48;;;22.30;59.10;;;;;;2505751;53;21015;-77
2022/10/09 13:50:14;;;;;;;2.67;1.33;;;22.40;59.10;;;;;;2269893;53;7378960;-77
2022/10/09 13:52:41;;;;;;;3.15;1.25;;;22.40;58.60;;;;;;2339068;53;21013;-78
2022/10/09 13:55:07;;;;;;;4.15;1.00;;;22.40;58.60;;;;;;2343240;54;21468;-77